SKUI/UIB METAR and TAF weather

Enter ICAO airport designator
Station Type Date Time Source
SKUI METAR 2020/01/29 12:00 UTC NOAA

SKUI 291200Z 07005KT 3000 DZ OVC005 24/24 A2991


Station Type Date Time Source
SKUI Decoded METAR 2020/01/29 12:00 UTC NOAA

Quibdo / El Carano, Colombia (SKUI) 05-43N 076-37W
Jan 29, 2020 - 07:00 AM EST / 2020.01.29 1200 UTC
Wind: from the ENE (070 degrees) at 6 MPH (5 KT):0
Visibility: 1 mile(s):0
Sky conditions: overcast
Weather: drizzle
Temperature: 75 F (24 C)
Dew Point: 75 F (24 C)
Relative Humidity: 100%
Pressure (altimeter): 29.91 in. Hg (1012 hPa)
ob: SKUI 291200Z 07005KT 3000 DZ OVC005 24/24 A2991
cycle: 12

Station Type Date Time Source
SKUI TAF UTC NOAA

Error!

Example: see airport list